El Centro Naf Airport
KNJK : now visible

Airfield :











YOU CAN JOIN US ON...

 
LOGIN :

Register | Disclaimer

   EN    FR    IT 

 









Legend :    VFR   Marginal VFR   IFR   Intensive IFR   Very Intensive IFR
Visi :
Ceiling :
>= 8 km
>= 3000ft
5 to 8 km
1000 to 3000 ft
1500m to 5 km
500 to 1000 ft
800 to 1500m
200 to 500 ft
< 800m
< 200 ft
Symbols :   Thunderstorms  Fog  Heavy snow  Heavy precipitations  Wind > 20 kt







- Airport Elevation : -42 ft


KNJK - El Centro Naf

CURRENT METAR :
  • 211656Z 30005KT 10SM CLR 30/02 A2987 RMK AO2 SLP132 T03000022 $

EXPIRED METARs :
  • 211556Z 27005KT 10SM CLR 26/02 A2987 RMK AO2 SLP130 T02610022 $
  • 211456Z 25005KT 10SM CLR 21/01 A2986 RMK AO2 SLP126 T02110006 53015 $

TAF TAF KNJK
Valid from the 21 at 15:00 until the 22 at 15:00 UTC


2115/2215 VRB06KT 9999 FEW200 QNH2970INS LAST NO AMDS AFT 2116 NEXT 2307 T35/2122Z T15/2213Z FS30136
No reported NOTAMs for that airfield.



MET'MAP, your aeronautical weather chart ! - Copyright ORBIFLY December 2007 - Disclaimer

ORBIFLY MET'MAP TEAM :

Programming & Development : Alexandra Zaïnal
Concept & Development : Baudouin d'Aumeries
Co-Development & Prog : Marc-Olivier Méhu
Technical & hardware support : Manuel Goepfert

Contact : metmap@orbifly.com




SOURCES & CREDITS :

   NOAA       Earth
Advisory